This is the latest recevied weather packets stored in our database for station/object W4OCD. If no packets are shown the sender has not sent any weather packets the latest 10 day(s).
| Time | Temp. | Humidity | Pressure | Rain* | Wind** | Luminosity | Snow |
|---|---|---|---|---|---|---|---|
| 1777810640 | 10° C | 84% | 1021.3 hPa | 0 mm | - | 31 W/m² | - |
| 1777810033 | 9.44° C | 84% | 1021.1 hPa | 0 mm | - | 28 W/m² | - |
| 1777809428 | 8.89° C | 87% | 1021 hPa | 0 mm | - | 25 W/m² | - |
| 1777808824 | 7.78° C | 90% | 1020.9 hPa | 0 mm | - | 21 W/m² | - |
| 1777808217 | 7.78° C | 90% | 1021.3 hPa | 0 mm | - | 17 W/m² | - |
| 1777806703 | 7.78° C | 87% | 1020.5 hPa | 0 mm | - | 6 W/m² | - |
| 1777806399 | 7.78° C | 87% | 1020.5 hPa | 0 mm | - | 3 W/m² | - |
| 1777804583 | 8.33° C | 87% | 1020.1 hPa | 0 mm | - | 0 W/m² | - |
| 1777803977 | 7.78° C | 87% | 1019.9 hPa | 0 mm | - | 0 W/m² | - |
| 1777803674 | 7.78° C | 88% | 1020.1 hPa | 0 mm | - | 0 W/m² | - |
| 1777803068 | 7.78° C | 88% | 1020.2 hPa | 0 mm | - | 0 W/m² | - |
| 1777802765 | 7.78° C | 88% | 1020.3 hPa | 0 mm | - | 0 W/m² | - |
| 1777802463 | 7.78° C | 89% | 1020.2 hPa | 0 mm | - | 0 W/m² | - |
| 1777801858 | 7.78° C | 89% | 1020.2 hPa | 0 mm | - | 0 W/m² | - |
| 1777801555 | 7.78° C | 87% | 1020 hPa | 0 mm | - | 0 W/m² | - |
| 1777800948 | 8.33° C | 86% | 1020 hPa | 0 mm | - | 0 W/m² | - |
| 1777800645 | 8.33° C | 86% | 1020 hPa | 0 mm | - | 0 W/m² | - |
| 1777800340 | 8.33° C | 85% | 1019.9 hPa | 0 mm | - | 0 W/m² | - |
| 1777800037 | 8.89° C | 83% | 1020 hPa | 0 mm | - | 0 W/m² | - |
| 1777799732 | 8.89° C | 82% | 1019.8 hPa | 0 mm | - | 0 W/m² | - |
| 1777799430 | 8.89° C | 83% | 1019.9 hPa | 0 mm | - | 0 W/m² | - |
| 1777799126 | 8.89° C | 82% | 1020 hPa | 0 mm | - | 0 W/m² | - |
| 1777798821 | 9.44° C | 82% | 1019.9 hPa | 0 mm | - | 0 W/m² | - |
| 1777798518 | 10° C | 79% | 1020 hPa | 0 mm | - | 0 W/m² | - |
| 1777798215 | 9.44° C | 80% | 1019.7 hPa | 0 mm | - | 0 W/m² | - |
* Rain latest hour (hover to see other rain measurements)
** Current wind speed in m/s (hover to see current wind gust speed)